sensor_id;sensor_type;location;lat;lon;timestamp;P1;durP1;ratioP1;P2;durP2;ratioP2
62707;SDS011;48769;51.624;5.886;2022-07-21T00:01:00;31.73;;;28.33;;
62707;SDS011;48769;51.624;5.886;2022-07-21T00:03:25;29.15;;;26.08;;
62707;SDS011;48769;51.624;5.886;2022-07-21T00:06:09;30.85;;;27.52;;
62707;SDS011;48769;51.624;5.886;2022-07-21T00:08:34;26.35;;;23.65;;
62707;SDS011;48769;51.624;5.886;2022-07-21T00:11:00;27.67;;;24.77;;
62707;SDS011;48769;51.624;5.886;2022-07-21T00:13:25;28.83;;;24.10;;
62707;SDS011;48769;51.624;5.886;2022-07-21T00:15:51;26.85;;;23.50;;
62707;SDS011;48769;51.624;5.886;2022-07-21T00:18:16;25.50;;;22.80;;
62707;SDS011;48769;51.624;5.886;2022-07-21T00:20:43;22.65;;;20.13;;
62707;SDS011;48769;51.624;5.886;2022-07-21T00:23:08;23.85;;;21.00;;
62707;SDS011;48769;51.624;5.886;2022-07-21T00:25:34;22.77;;;19.83;;
62707;SDS011;48769;51.624;5.886;2022-07-21T00:27:59;23.92;;;20.33;;
62707;SDS011;48769;51.624;5.886;2022-07-21T00:30:24;21.90;;;19.55;;
62707;SDS011;48769;51.624;5.886;2022-07-21T00:32:50;23.50;;;20.20;;
62707;SDS011;48769;51.624;5.886;2022-07-21T00:35:16;21.58;;;19.25;;
62707;SDS011;48769;51.624;5.886;2022-07-21T00:37:41;20.63;;;18.42;;
62707;SDS011;48769;51.624;5.886;2022-07-21T00:40:08;21.50;;;19.27;;
62707;SDS011;48769;51.624;5.886;2022-07-21T00:42:35;21.23;;;19.17;;
62707;SDS011;48769;51.624;5.886;2022-07-21T00:45:02;21.17;;;18.88;;
62707;SDS011;48769;51.624;5.886;2022-07-21T00:47:29;22.13;;;20.02;;
62707;SDS011;48769;51.624;5.886;2022-07-21T00:49:56;24.10;;;21.55;;
62707;SDS011;48769;51.624;5.886;2022-07-21T00:52:23;22.63;;;20.42;;
62707;SDS011;48769;51.624;5.886;2022-07-21T00:54:48;22.60;;;20.20;;
62707;SDS011;48769;51.624;5.886;2022-07-21T00:57:14;23.15;;;20.73;;
62707;SDS011;48769;51.624;5.886;2022-07-21T00:59:41;23.92;;;21.35;;
62707;SDS011;48769;51.624;5.886;2022-07-21T01:02:07;21.23;;;19.13;;
62707;SDS011;48769;51.624;5.886;2022-07-21T01:04:33;23.70;;;21.25;;
62707;SDS011;48769;51.624;5.886;2022-07-21T01:07:00;22.08;;;19.73;;
62707;SDS011;48769;51.624;5.886;2022-07-21T01:09:26;22.27;;;19.98;;
62707;SDS011;48769;51.624;5.886;2022-07-21T01:11:51;20.27;;;18.08;;
62707;SDS011;48769;51.624;5.886;2022-07-21T01:14:17;23.90;;;20.83;;
62707;SDS011;48769;51.624;5.886;2022-07-21T01:16:43;22.35;;;19.98;;
62707;SDS011;48769;51.624;5.886;2022-07-21T01:19:08;25.48;;;21.95;;
62707;SDS011;48769;51.624;5.886;2022-07-21T01:21:35;23.30;;;20.80;;
62707;SDS011;48769;51.624;5.886;2022-07-21T01:24:02;25.92;;;21.13;;
62707;SDS011;48769;51.624;5.886;2022-07-21T01:26:30;25.13;;;22.50;;
62707;SDS011;48769;51.624;5.886;2022-07-21T01:28:55;24.77;;;22.23;;
62707;SDS011;48769;51.624;5.886;2022-07-21T01:31:22;28.38;;;23.02;;
62707;SDS011;48769;51.624;5.886;2022-07-21T01:33:48;26.52;;;23.58;;
62707;SDS011;48769;51.624;5.886;2022-07-21T01:36:14;25.80;;;23.20;;
62707;SDS011;48769;51.624;5.886;2022-07-21T01:38:40;28.92;;;24.55;;
62707;SDS011;48769;51.624;5.886;2022-07-21T01:41:24;26.20;;;23.40;;
62707;SDS011;48769;51.624;5.886;2022-07-21T01:44:03;24.75;;;22.20;;
62707;SDS011;48769;51.624;5.886;2022-07-21T01:46:31;25.55;;;22.02;;
62707;SDS011;48769;51.624;5.886;2022-07-21T01:49:00;27.33;;;22.35;;
62707;SDS011;48769;51.624;5.886;2022-07-21T01:51:25;24.08;;;21.52;;
62707;SDS011;48769;51.624;5.886;2022-07-21T01:53:51;25.08;;;22.48;;
62707;SDS011;48769;51.624;5.886;2022-07-21T01:56:18;24.58;;;22.15;;
62707;SDS011;48769;51.624;5.886;2022-07-21T01:58:48;24.35;;;21.75;;
62707;SDS011;48769;51.624;5.886;2022-07-21T02:01:19;24.88;;;21.23;;
62707;SDS011;48769;51.624;5.886;2022-07-21T02:03:46;25.92;;;22.88;;
62707;SDS011;48769;51.624;5.886;2022-07-21T02:06:12;26.40;;;23.60;;
62707;SDS011;48769;51.624;5.886;2022-07-21T02:08:38;26.90;;;23.73;;
62707;SDS011;48769;51.624;5.886;2022-07-21T02:11:04;26.35;;;23.55;;
62707;SDS011;48769;51.624;5.886;2022-07-21T02:13:30;25.58;;;22.35;;
62707;SDS011;48769;51.624;5.886;2022-07-21T02:15:56;25.13;;;22.42;;
62707;SDS011;48769;51.624;5.886;2022-07-21T02:18:21;26.02;;;23.30;;
62707;SDS011;48769;51.624;5.886;2022-07-21T02:20:46;24.88;;;22.20;;
62707;SDS011;48769;51.624;5.886;2022-07-21T02:23:16;27.45;;;24.30;;
62707;SDS011;48769;51.624;5.886;2022-07-21T02:25:42;26.30;;;23.48;;
62707;SDS011;48769;51.624;5.886;2022-07-21T02:28:07;28.27;;;24.90;;
62707;SDS011;48769;51.624;5.886;2022-07-21T02:30:33;25.90;;;23.10;;
62707;SDS011;48769;51.624;5.886;2022-07-21T02:32:58;26.33;;;22.42;;
62707;SDS011;48769;51.624;5.886;2022-07-21T02:35:23;28.23;;;23.73;;
62707;SDS011;48769;51.624;5.886;2022-07-21T02:37:49;26.27;;;22.73;;
62707;SDS011;48769;51.624;5.886;2022-07-21T02:40:14;26.67;;;23.65;;
62707;SDS011;48769;51.624;5.886;2022-07-21T02:42:39;30.30;;;25.45;;
62707;SDS011;48769;51.624;5.886;2022-07-21T02:45:05;24.45;;;21.92;;
62707;SDS011;48769;51.624;5.886;2022-07-21T02:47:32;27.02;;;23.27;;
62707;SDS011;48769;51.624;5.886;2022-07-21T02:49:58;25.27;;;22.58;;
62707;SDS011;48769;51.624;5.886;2022-07-21T02:52:23;29.98;;;23.85;;
62707;SDS011;48769;51.624;5.886;2022-07-21T02:54:48;26.20;;;22.30;;
62707;SDS011;48769;51.624;5.886;2022-07-21T02:57:14;26.63;;;23.15;;
62707;SDS011;48769;51.624;5.886;2022-07-21T02:59:39;34.85;;;24.90;;
62707;SDS011;48769;51.624;5.886;2022-07-21T03:02:04;28.65;;;23.63;;
62707;SDS011;48769;51.624;5.886;2022-07-21T03:04:29;26.80;;;23.00;;
62707;SDS011;48769;51.624;5.886;2022-07-21T03:06:55;30.27;;;26.00;;
62707;SDS011;48769;51.624;5.886;2022-07-21T03:09:20;29.10;;;24.75;;
62707;SDS011;48769;51.624;5.886;2022-07-21T03:11:45;28.33;;;25.30;;
62707;SDS011;48769;51.624;5.886;2022-07-21T03:14:11;28.05;;;24.38;;
62707;SDS011;48769;51.624;5.886;2022-07-21T03:16:36;25.73;;;23.02;;
62707;SDS011;48769;51.624;5.886;2022-07-21T03:19:01;28.23;;;24.80;;
62707;SDS011;48769;51.624;5.886;2022-07-21T03:21:27;27.38;;;24.42;;
62707;SDS011;48769;51.624;5.886;2022-07-21T03:23:52;25.88;;;23.13;;
62707;SDS011;48769;51.624;5.886;2022-07-21T03:26:17;28.20;;;24.85;;
62707;SDS011;48769;51.624;5.886;2022-07-21T03:28:43;29.35;;;26.13;;
62707;SDS011;48769;51.624;5.886;2022-07-21T03:31:09;30.63;;;25.73;;
62707;SDS011;48769;51.624;5.886;2022-07-21T03:33:35;30.33;;;27.08;;
62707;SDS011;48769;51.624;5.886;2022-07-21T03:36:01;29.48;;;25.83;;
62707;SDS011;48769;51.624;5.886;2022-07-21T03:38:26;32.97;;;27.23;;
62707;SDS011;48769;51.624;5.886;2022-07-21T03:40:52;31.13;;;26.77;;
62707;SDS011;48769;51.624;5.886;2022-07-21T03:43:17;29.42;;;26.25;;
62707;SDS011;48769;51.624;5.886;2022-07-21T03:45:43;29.23;;;26.17;;
62707;SDS011;48769;51.624;5.886;2022-07-21T03:48:09;30.85;;;25.13;;
62707;SDS011;48769;51.624;5.886;2022-07-21T03:50:36;34.78;;;25.80;;
62707;SDS011;48769;51.624;5.886;2022-07-21T03:53:03;33.50;;;27.58;;
62707;SDS011;48769;51.624;5.886;2022-07-21T03:55:29;34.80;;;28.15;;
62707;SDS011;48769;51.624;5.886;2022-07-21T03:57:56;32.10;;;28.13;;
62707;SDS011;48769;51.624;5.886;2022-07-21T04:00:33;33.50;;;28.00;;
62707;SDS011;48769;51.624;5.886;2022-07-21T04:03:01;34.95;;;27.50;;
62707;SDS011;48769;51.624;5.886;2022-07-21T04:05:27;37.90;;;31.00;;
62707;SDS011;48769;51.624;5.886;2022-07-21T04:07:53;38.13;;;31.27;;
62707;SDS011;48769;51.624;5.886;2022-07-21T04:10:20;33.55;;;29.95;;
62707;SDS011;48769;51.624;5.886;2022-07-21T04:12:49;34.95;;;30.05;;
62707;SDS011;48769;51.624;5.886;2022-07-21T04:15:15;35.78;;;31.38;;
62707;SDS011;48769;51.624;5.886;2022-07-21T04:17:41;34.78;;;29.17;;
62707;SDS011;48769;51.624;5.886;2022-07-21T04:20:07;37.80;;;31.02;;
62707;SDS011;48769;51.624;5.886;2022-07-21T04:22:34;34.55;;;30.00;;
62707;SDS011;48769;51.624;5.886;2022-07-21T04:24:59;34.60;;;28.58;;
62707;SDS011;48769;51.624;5.886;2022-07-21T04:27:25;38.08;;;30.52;;
62707;SDS011;48769;51.624;5.886;2022-07-21T04:29:52;31.63;;;27.73;;
62707;SDS011;48769;51.624;5.886;2022-07-21T04:32:17;34.33;;;30.05;;
62707;SDS011;48769;51.624;5.886;2022-07-21T04:34:43;39.33;;;31.15;;
62707;SDS011;48769;51.624;5.886;2022-07-21T04:37:08;35.10;;;30.90;;
62707;SDS011;48769;51.624;5.886;2022-07-21T04:39:33;37.45;;;31.60;;
62707;SDS011;48769;51.624;5.886;2022-07-21T04:41:59;31.77;;;28.38;;
62707;SDS011;48769;51.624;5.886;2022-07-21T04:44:24;34.90;;;31.10;;
62707;SDS011;48769;51.624;5.886;2022-07-21T04:46:50;40.05;;;30.95;;
62707;SDS011;48769;51.624;5.886;2022-07-21T04:49:15;37.30;;;30.77;;
62707;SDS011;48769;51.624;5.886;2022-07-21T04:51:41;37.63;;;32.35;;
62707;SDS011;48769;51.624;5.886;2022-07-21T04:54:06;36.97;;;31.73;;
62707;SDS011;48769;51.624;5.886;2022-07-21T04:56:32;41.28;;;33.17;;
62707;SDS011;48769;51.624;5.886;2022-07-21T04:58:59;35.83;;;31.98;;
62707;SDS011;48769;51.624;5.886;2022-07-21T05:01:25;36.00;;;31.15;;
62707;SDS011;48769;51.624;5.886;2022-07-21T05:03:51;37.78;;;33.25;;
62707;SDS011;48769;51.624;5.886;2022-07-21T05:06:16;36.65;;;31.65;;
62707;SDS011;48769;51.624;5.886;2022-07-21T05:08:42;39.08;;;33.88;;
62707;SDS011;48769;51.624;5.886;2022-07-21T05:11:08;42.40;;;32.80;;
62707;SDS011;48769;51.624;5.886;2022-07-21T05:13:33;42.25;;;33.03;;
62707;SDS011;48769;51.624;5.886;2022-07-21T05:15:58;40.03;;;32.33;;
62707;SDS011;48769;51.624;5.886;2022-07-21T05:18:24;37.60;;;32.42;;
62707;SDS011;48769;51.624;5.886;2022-07-21T05:20:49;42.78;;;34.47;;
62707;SDS011;48769;51.624;5.886;2022-07-21T05:23:14;45.05;;;33.80;;
62707;SDS011;48769;51.624;5.886;2022-07-21T05:25:40;41.38;;;32.72;;
62707;SDS011;48769;51.624;5.886;2022-07-21T05:28:05;42.75;;;33.17;;
62707;SDS011;48769;51.624;5.886;2022-07-21T05:30:30;42.38;;;33.08;;
62707;SDS011;48769;51.624;5.886;2022-07-21T05:32:56;42.58;;;34.85;;
62707;SDS011;48769;51.624;5.886;2022-07-21T05:35:21;42.28;;;34.72;;
62707;SDS011;48769;51.624;5.886;2022-07-21T05:37:47;41.58;;;33.63;;
62707;SDS011;48769;51.624;5.886;2022-07-21T05:40:12;37.67;;;31.90;;
62707;SDS011;48769;51.624;5.886;2022-07-21T05:42:39;40.58;;;32.90;;
62707;SDS011;48769;51.624;5.886;2022-07-21T05:45:07;39.15;;;32.83;;
62707;SDS011;48769;51.624;5.886;2022-07-21T05:47:33;37.03;;;32.20;;
62707;SDS011;48769;51.624;5.886;2022-07-21T05:49:59;37.58;;;30.48;;
62707;SDS011;48769;51.624;5.886;2022-07-21T05:52:24;39.80;;;28.95;;
62707;SDS011;48769;51.624;5.886;2022-07-21T05:54:50;34.47;;;30.20;;
62707;SDS011;48769;51.624;5.886;2022-07-21T05:57:15;34.08;;;29.88;;
62707;SDS011;48769;51.624;5.886;2022-07-21T05:59:40;34.03;;;27.60;;
62707;SDS011;48769;51.624;5.886;2022-07-21T06:02:06;38.05;;;25.75;;
62707;SDS011;48769;51.624;5.886;2022-07-21T06:04:32;31.25;;;25.65;;
62707;SDS011;48769;51.624;5.886;2022-07-21T06:06:57;31.73;;;25.88;;
62707;SDS011;48769;51.624;5.886;2022-07-21T06:09:22;32.42;;;25.58;;
62707;SDS011;48769;51.624;5.886;2022-07-21T06:11:48;32.40;;;25.23;;
62707;SDS011;48769;51.624;5.886;2022-07-21T06:14:13;28.58;;;23.88;;
62707;SDS011;48769;51.624;5.886;2022-07-21T06:16:39;28.63;;;25.27;;
62707;SDS011;48769;51.624;5.886;2022-07-21T06:19:05;32.55;;;24.95;;
62707;SDS011;48769;51.624;5.886;2022-07-21T06:21:34;30.75;;;23.67;;
62707;SDS011;48769;51.624;5.886;2022-07-21T06:24:00;28.25;;;22.73;;
62707;SDS011;48769;51.624;5.886;2022-07-21T06:26:26;26.27;;;22.65;;
62707;SDS011;48769;51.624;5.886;2022-07-21T06:28:51;31.67;;;24.08;;
62707;SDS011;48769;51.624;5.886;2022-07-21T06:31:17;29.05;;;23.83;;
62707;SDS011;48769;51.624;5.886;2022-07-21T06:33:42;30.98;;;23.35;;
62707;SDS011;48769;51.624;5.886;2022-07-21T06:36:08;29.35;;;21.85;;
62707;SDS011;48769;51.624;5.886;2022-07-21T06:38:34;28.15;;;22.17;;
62707;SDS011;48769;51.624;5.886;2022-07-21T06:40:59;27.23;;;21.20;;
62707;SDS011;48769;51.624;5.886;2022-07-21T06:43:25;29.13;;;22.38;;
62707;SDS011;48769;51.624;5.886;2022-07-21T06:45:50;26.92;;;23.52;;
62707;SDS011;48769;51.624;5.886;2022-07-21T06:48:16;31.85;;;23.52;;
62707;SDS011;48769;51.624;5.886;2022-07-21T06:50:41;30.52;;;24.42;;
62707;SDS011;48769;51.624;5.886;2022-07-21T06:53:07;29.92;;;24.70;;
62707;SDS011;48769;51.624;5.886;2022-07-21T06:55:33;28.88;;;24.70;;
62707;SDS011;48769;51.624;5.886;2022-07-21T06:58:07;35.65;;;25.08;;
62707;SDS011;48769;51.624;5.886;2022-07-21T07:00:38;32.20;;;23.77;;
62707;SDS011;48769;51.624;5.886;2022-07-21T07:03:03;36.03;;;26.60;;
62707;SDS011;48769;51.624;5.886;2022-07-21T07:05:29;33.72;;;25.75;;
62707;SDS011;48769;51.624;5.886;2022-07-21T07:07:55;29.52;;;25.30;;
62707;SDS011;48769;51.624;5.886;2022-07-21T07:10:21;33.75;;;26.88;;
62707;SDS011;48769;51.624;5.886;2022-07-21T07:12:47;31.48;;;25.77;;
62707;SDS011;48769;51.624;5.886;2022-07-21T07:15:12;32.03;;;25.60;;
62707;SDS011;48769;51.624;5.886;2022-07-21T07:17:37;33.80;;;26.90;;
62707;SDS011;48769;51.624;5.886;2022-07-21T07:20:03;32.85;;;25.98;;
62707;SDS011;48769;51.624;5.886;2022-07-21T07:22:31;33.20;;;27.30;;
62707;SDS011;48769;51.624;5.886;2022-07-21T07:24:56;36.85;;;27.02;;
62707;SDS011;48769;51.624;5.886;2022-07-21T07:27:21;36.08;;;27.10;;
62707;SDS011;48769;51.624;5.886;2022-07-21T07:29:47;37.03;;;26.17;;
62707;SDS011;48769;51.624;5.886;2022-07-21T07:32:12;34.92;;;27.63;;
62707;SDS011;48769;51.624;5.886;2022-07-21T07:34:38;30.08;;;24.77;;
62707;SDS011;48769;51.624;5.886;2022-07-21T07:37:03;32.63;;;26.50;;
62707;SDS011;48769;51.624;5.886;2022-07-21T07:39:29;37.42;;;27.73;;
62707;SDS011;48769;51.624;5.886;2022-07-21T07:41:55;45.25;;;27.88;;
62707;SDS011;48769;51.624;5.886;2022-07-21T07:44:21;32.13;;;26.63;;
62707;SDS011;48769;51.624;5.886;2022-07-21T07:46:47;35.67;;;27.98;;
62707;SDS011;48769;51.624;5.886;2022-07-21T07:49:12;35.05;;;27.50;;
62707;SDS011;48769;51.624;5.886;2022-07-21T07:51:38;40.08;;;27.25;;
62707;SDS011;48769;51.624;5.886;2022-07-21T07:54:03;34.40;;;26.77;;
62707;SDS011;48769;51.624;5.886;2022-07-21T07:56:29;29.52;;;25.70;;
62707;SDS011;48769;51.624;5.886;2022-07-21T07:58:55;40.03;;;28.35;;
62707;SDS011;48769;51.624;5.886;2022-07-21T08:01:21;34.13;;;26.85;;
62707;SDS011;48769;51.624;5.886;2022-07-21T08:03:46;36.95;;;27.80;;
62707;SDS011;48769;51.624;5.886;2022-07-21T08:06:12;37.03;;;26.35;;
62707;SDS011;48769;51.624;5.886;2022-07-21T08:08:37;37.95;;;27.92;;
62707;SDS011;48769;51.624;5.886;2022-07-21T08:11:03;34.92;;;26.67;;
62707;SDS011;48769;51.624;5.886;2022-07-21T08:13:28;34.25;;;26.88;;
62707;SDS011;48769;51.624;5.886;2022-07-21T08:15:54;32.65;;;27.10;;
62707;SDS011;48769;51.624;5.886;2022-07-21T08:18:19;34.75;;;27.15;;
62707;SDS011;48769;51.624;5.886;2022-07-21T08:20:45;34.03;;;26.52;;
62707;SDS011;48769;51.624;5.886;2022-07-21T08:23:12;36.05;;;28.30;;
62707;SDS011;48769;51.624;5.886;2022-07-21T08:25:38;36.15;;;25.90;;
62707;SDS011;48769;51.624;5.886;2022-07-21T08:28:04;34.67;;;27.35;;
62707;SDS011;48769;51.624;5.886;2022-07-21T08:30:29;30.98;;;26.05;;
62707;SDS011;48769;51.624;5.886;2022-07-21T08:32:55;31.80;;;26.73;;
62707;SDS011;48769;51.624;5.886;2022-07-21T08:35:21;38.42;;;26.77;;
62707;SDS011;48769;51.624;5.886;2022-07-21T08:38:20;34.60;;;27.95;;
62707;SDS011;48769;51.624;5.886;2022-07-21T08:40:44;36.15;;;27.95;;
62707;SDS011;48769;51.624;5.886;2022-07-21T08:43:10;33.13;;;25.98;;
62707;SDS011;48769;51.624;5.886;2022-07-21T08:45:38;35.35;;;25.98;;
62707;SDS011;48769;51.624;5.886;2022-07-21T08:48:03;36.67;;;25.42;;
62707;SDS011;48769;51.624;5.886;2022-07-21T08:50:30;30.80;;;25.30;;
62707;SDS011;48769;51.624;5.886;2022-07-21T08:52:57;31.92;;;24.10;;
62707;SDS011;48769;51.624;5.886;2022-07-21T08:55:23;26.75;;;21.58;;
62707;SDS011;48769;51.624;5.886;2022-07-21T08:57:49;24.33;;;17.60;;
62707;SDS011;48769;51.624;5.886;2022-07-21T09:00:15;19.50;;;14.32;;
62707;SDS011;48769;51.624;5.886;2022-07-21T09:02:40;16.33;;;12.57;;
62707;SDS011;48769;51.624;5.886;2022-07-21T09:05:07;19.15;;;13.25;;
62707;SDS011;48769;51.624;5.886;2022-07-21T09:07:50;17.55;;;13.07;;
62707;SDS011;48769;51.624;5.886;2022-07-21T09:10:20;16.10;;;13.77;;
62707;SDS011;48769;51.624;5.886;2022-07-21T09:12:51;18.92;;;12.63;;
62707;SDS011;48769;51.624;5.886;2022-07-21T09:15:22;14.98;;;13.38;;
62707;SDS011;48769;51.624;5.886;2022-07-21T09:18:10;18.60;;;14.43;;
62707;SDS011;48769;51.624;5.886;2022-07-21T09:20:34;19.15;;;16.10;;
62707;SDS011;48769;51.624;5.886;2022-07-21T09:23:11;17.65;;;15.77;;
62707;SDS011;48769;51.624;5.886;2022-07-21T09:25:41;19.73;;;15.85;;
62707;SDS011;48769;51.624;5.886;2022-07-21T09:28:13;18.17;;;16.15;;
62707;SDS011;48769;51.624;5.886;2022-07-21T09:33:24;21.25;;;17.10;;
62707;SDS011;48769;51.624;5.886;2022-07-21T09:35:59;25.52;;;18.52;;
62707;SDS011;48769;51.624;5.886;2022-07-21T09:38:25;23.73;;;19.08;;
62707;SDS011;48769;51.624;5.886;2022-07-21T09:40:51;20.05;;;16.35;;
62707;SDS011;48769;51.624;5.886;2022-07-21T09:43:30;22.63;;;19.20;;
62707;SDS011;48769;51.624;5.886;2022-07-21T09:46:18;28.20;;;20.02;;
62707;SDS011;48769;51.624;5.886;2022-07-21T09:48:49;45.65;;;22.00;;
62707;SDS011;48769;51.624;5.886;2022-07-21T09:51:19;28.35;;;18.48;;
62707;SDS011;48769;51.624;5.886;2022-07-21T09:53:51;33.20;;;22.10;;
62707;SDS011;48769;51.624;5.886;2022-07-21T09:56:25;24.10;;;19.20;;
62707;SDS011;48769;51.624;5.886;2022-07-21T09:58:53;20.45;;;16.15;;
62707;SDS011;48769;51.624;5.886;2022-07-21T10:01:19;14.93;;;13.27;;
62707;SDS011;48769;51.624;5.886;2022-07-21T10:03:46;14.43;;;12.38;;
62707;SDS011;48769;51.624;5.886;2022-07-21T10:06:13;13.75;;;12.32;;
62707;SDS011;48769;51.624;5.886;2022-07-21T10:08:40;13.40;;;12.00;;
62707;SDS011;48769;51.624;5.886;2022-07-21T10:11:06;16.73;;;13.52;;
62707;SDS011;48769;51.624;5.886;2022-07-21T10:13:32;16.48;;;13.05;;
62707;SDS011;48769;51.624;5.886;2022-07-21T10:15:58;15.43;;;13.18;;
62707;SDS011;48769;51.624;5.886;2022-07-21T10:18:28;15.18;;;13.15;;
62707;SDS011;48769;51.624;5.886;2022-07-21T10:21:01;13.32;;;12.02;;
62707;SDS011;48769;51.624;5.886;2022-07-21T10:23:37;16.40;;;13.32;;
62707;SDS011;48769;51.624;5.886;2022-07-21T10:26:06;16.00;;;13.77;;
62707;SDS011;48769;51.624;5.886;2022-07-21T10:28:32;16.23;;;14.48;;
62707;SDS011;48769;51.624;5.886;2022-07-21T10:30:59;16.10;;;14.32;;
62707;SDS011;48769;51.624;5.886;2022-07-21T10:36:09;14.02;;;12.50;;
62707;SDS011;48769;51.624;5.886;2022-07-21T10:38:35;16.00;;;12.98;;
62707;SDS011;48769;51.624;5.886;2022-07-21T10:41:03;16.10;;;12.70;;
62707;SDS011;48769;51.624;5.886;2022-07-21T10:45:55;14.45;;;12.95;;
62707;SDS011;48769;51.624;5.886;2022-07-21T10:51:03;14.75;;;13.23;;
62707;SDS011;48769;51.624;5.886;2022-07-21T10:53:31;15.10;;;13.35;;
62707;SDS011;48769;51.624;5.886;2022-07-21T10:55:57;14.57;;;13.07;;
62707;SDS011;48769;51.624;5.886;2022-07-21T11:00:53;12.10;;;10.93;;
62707;SDS011;48769;51.624;5.886;2022-07-21T11:03:24;12.93;;;11.65;;
62707;SDS011;48769;51.624;5.886;2022-07-21T11:08:33;11.13;;;10.02;;
62707;SDS011;48769;51.624;5.886;2022-07-21T11:11:10;11.50;;;10.50;;
62707;SDS011;48769;51.624;5.886;2022-07-21T11:22:05;13.77;;;12.40;;
62707;SDS011;48769;51.624;5.886;2022-07-21T11:24:34;13.90;;;12.43;;
62707;SDS011;48769;51.624;5.886;2022-07-21T11:27:00;13.75;;;12.45;;
62707;SDS011;48769;51.624;5.886;2022-07-21T11:29:29;14.60;;;12.68;;
62707;SDS011;48769;51.624;5.886;2022-07-21T11:31:55;15.65;;;13.90;;
62707;SDS011;48769;51.624;5.886;2022-07-21T11:34:22;15.20;;;13.73;;
62707;SDS011;48769;51.624;5.886;2022-07-21T11:36:48;17.63;;;15.57;;
62707;SDS011;48769;51.624;5.886;2022-07-21T11:39:23;18.98;;;15.27;;
62707;SDS011;48769;51.624;5.886;2022-07-21T11:41:49;15.48;;;13.82;;
62707;SDS011;48769;51.624;5.886;2022-07-21T11:44:21;16.05;;;13.75;;
62707;SDS011;48769;51.624;5.886;2022-07-21T11:46:51;16.70;;;14.50;;
62707;SDS011;48769;51.624;5.886;2022-07-21T11:49:18;17.42;;;15.73;;
62707;SDS011;48769;51.624;5.886;2022-07-21T11:51:48;17.95;;;15.93;;
62707;SDS011;48769;51.624;5.886;2022-07-21T11:54:33;17.83;;;16.02;;
62707;SDS011;48769;51.624;5.886;2022-07-21T11:57:02;22.10;;;17.55;;
62707;SDS011;48769;51.624;5.886;2022-07-21T11:59:29;19.02;;;16.88;;
62707;SDS011;48769;51.624;5.886;2022-07-21T12:01:59;23.83;;;17.80;;
62707;SDS011;48769;51.624;5.886;2022-07-21T12:04:27;24.77;;;19.35;;
62707;SDS011;48769;51.624;5.886;2022-07-21T12:07:01;25.95;;;19.77;;
62707;SDS011;48769;51.624;5.886;2022-07-21T12:09:27;21.42;;;19.23;;
62707;SDS011;48769;51.624;5.886;2022-07-21T12:11:53;21.92;;;19.48;;
62707;SDS011;48769;51.624;5.886;2022-07-21T12:17:06;28.42;;;20.52;;
62707;SDS011;48769;51.624;5.886;2022-07-21T12:19:31;27.55;;;20.70;;
62707;SDS011;48769;51.624;5.886;2022-07-21T12:21:57;24.17;;;19.88;;
62707;SDS011;48769;51.624;5.886;2022-07-21T12:24:22;24.02;;;20.40;;
62707;SDS011;48769;51.624;5.886;2022-07-21T12:27:18;26.05;;;21.33;;
62707;SDS011;48769;51.624;5.886;2022-07-21T12:29:44;26.45;;;20.40;;
62707;SDS011;48769;51.624;5.886;2022-07-21T12:32:10;27.40;;;20.35;;
62707;SDS011;48769;51.624;5.886;2022-07-21T12:34:49;28.48;;;23.30;;
62707;SDS011;48769;51.624;5.886;2022-07-21T12:37:15;23.02;;;20.60;;
62707;SDS011;48769;51.624;5.886;2022-07-21T12:39:41;24.08;;;20.55;;
62707;SDS011;48769;51.624;5.886;2022-07-21T12:42:29;20.98;;;18.67;;
62707;SDS011;48769;51.624;5.886;2022-07-21T12:45:16;18.63;;;16.52;;
62707;SDS011;48769;51.624;5.886;2022-07-21T12:50:35;22.27;;;18.52;;
62707;SDS011;48769;51.624;5.886;2022-07-21T12:53:04;18.58;;;16.52;;
62707;SDS011;48769;51.624;5.886;2022-07-21T12:55:30;15.75;;;13.27;;
62707;SDS011;48769;51.624;5.886;2022-07-21T12:57:56;14.40;;;12.35;;
62707;SDS011;48769;51.624;5.886;2022-07-21T13:00:21;13.73;;;11.93;;
62707;SDS011;48769;51.624;5.886;2022-07-21T13:05:18;11.25;;;10.23;;
62707;SDS011;48769;51.624;5.886;2022-07-21T13:07:44;10.95;;;9.80;;
62707;SDS011;48769;51.624;5.886;2022-07-21T13:10:09;10.70;;;9.48;;
62707;SDS011;48769;51.624;5.886;2022-07-21T13:12:35;10.05;;;9.05;;
62707;SDS011;48769;51.624;5.886;2022-07-21T13:15:01;11.27;;;10.18;;
62707;SDS011;48769;51.624;5.886;2022-07-21T13:17:26;12.32;;;11.13;;
62707;SDS011;48769;51.624;5.886;2022-07-21T13:19:52;11.70;;;10.60;;
62707;SDS011;48769;51.624;5.886;2022-07-21T13:22:17;13.02;;;11.70;;
62707;SDS011;48769;51.624;5.886;2022-07-21T13:24:42;12.90;;;11.63;;
62707;SDS011;48769;51.624;5.886;2022-07-21T13:27:07;14.10;;;12.73;;
62707;SDS011;48769;51.624;5.886;2022-07-21T13:29:33;14.02;;;12.68;;
62707;SDS011;48769;51.624;5.886;2022-07-21T13:31:58;17.98;;;13.23;;
62707;SDS011;48769;51.624;5.886;2022-07-21T13:34:24;14.60;;;13.10;;
62707;SDS011;48769;51.624;5.886;2022-07-21T13:36:49;15.13;;;13.63;;
62707;SDS011;48769;51.624;5.886;2022-07-21T13:39:14;15.90;;;14.30;;
62707;SDS011;48769;51.624;5.886;2022-07-21T13:41:40;15.55;;;14.00;;
62707;SDS011;48769;51.624;5.886;2022-07-21T13:44:06;18.20;;;16.17;;
62707;SDS011;48769;51.624;5.886;2022-07-21T13:46:31;16.80;;;15.10;;
62707;SDS011;48769;51.624;5.886;2022-07-21T13:48:57;18.42;;;16.08;;
62707;SDS011;48769;51.624;5.886;2022-07-21T13:51:22;17.20;;;15.43;;
62707;SDS011;48769;51.624;5.886;2022-07-21T13:53:49;18.25;;;16.45;;
62707;SDS011;48769;51.624;5.886;2022-07-21T13:56:16;21.83;;;17.85;;
62707;SDS011;48769;51.624;5.886;2022-07-21T13:58:42;19.80;;;17.88;;
62707;SDS011;48769;51.624;5.886;2022-07-21T14:01:08;17.27;;;15.57;;
62707;SDS011;48769;51.624;5.886;2022-07-21T14:03:35;19.27;;;15.95;;
62707;SDS011;48769;51.624;5.886;2022-07-21T14:06:01;18.60;;;16.65;;
62707;SDS011;48769;51.624;5.886;2022-07-21T14:08:27;21.02;;;16.83;;
62707;SDS011;48769;51.624;5.886;2022-07-21T14:10:52;23.95;;;18.00;;
62707;SDS011;48769;51.624;5.886;2022-07-21T14:13:18;19.65;;;17.65;;
62707;SDS011;48769;51.624;5.886;2022-07-21T14:15:43;19.50;;;17.30;;
62707;SDS011;48769;51.624;5.886;2022-07-21T14:18:09;21.92;;;18.73;;
62707;SDS011;48769;51.624;5.886;2022-07-21T14:20:34;21.23;;;18.98;;
62707;SDS011;48769;51.624;5.886;2022-07-21T14:23:00;21.25;;;17.90;;
62707;SDS011;48769;51.624;5.886;2022-07-21T14:25:25;20.58;;;17.25;;
62707;SDS011;48769;51.624;5.886;2022-07-21T14:27:54;20.65;;;18.50;;
62707;SDS011;48769;51.624;5.886;2022-07-21T14:30:22;21.00;;;16.80;;
62707;SDS011;48769;51.624;5.886;2022-07-21T14:32:49;21.70;;;18.95;;
62707;SDS011;48769;51.624;5.886;2022-07-21T14:35:15;22.20;;;20.10;;
62707;SDS011;48769;51.624;5.886;2022-07-21T14:37:43;25.33;;;21.23;;
62707;SDS011;48769;51.624;5.886;2022-07-21T14:40:09;22.60;;;20.33;;
62707;SDS011;48769;51.624;5.886;2022-07-21T14:42:35;22.75;;;20.35;;
62707;SDS011;48769;51.624;5.886;2022-07-21T14:45:01;28.30;;;22.02;;
62707;SDS011;48769;51.624;5.886;2022-07-21T14:47:27;22.75;;;20.63;;
62707;SDS011;48769;51.624;5.886;2022-07-21T14:49:55;23.77;;;21.38;;
62707;SDS011;48769;51.624;5.886;2022-07-21T14:52:20;25.13;;;22.52;;